Delta Ocean — SVAU9 — position and weather

sailwx.info

Track history (hours):
 
Tides and Currents Weather Stations Pressure Air Temp Water Temp Dewpoint Dewpoint Depression Visibility Wind Speed Wind Dir Waves Ship Positions

Delta Ocean

Last reported at 2014-Jun-24 22:19 UTC. Time now 2014-Jul-23 23:41 UTC.
Position S 32°36' E 016°51'.
Warning: this ship's position is 29 days out of date.

Length 274 m; draft 9 m.

Type: Tanker. MMSI: 240958000.

Date/timePositionNaut miles runAvg speedWind from/ knotsBaromVisibWave heightAir tempDewpointWater temp
2014-Jun-24 22:19S 32°36' E 016°51'26 6.8
2014-Jun-24 18:31S 32°59' E 017°05'79 5.5
2014-Jun-24 04:12S 33°56' E 018°11'1 1.6
2014-Jun-24 03:33S 33°57' E 018°11'5 5.0
2014-Jun-24 02:33S 34°02' E 018°09'7 7.0
2014-Jun-24 01:33S 34°08' E 018°05'7 7.2
2014-Jun-24 00:33S 34°15' E 018°01'7 6.5
2014-Jun-23 23:33S 34°21' E 018°01'6 6.5
2014-Jun-23 22:33S 34°27' E 018°05'9 6.6
2014-Jun-23 21:11S 34°35' E 018°10'4 6.5
2014-Jun-23 20:33S 34°37' E 018°14'6 6.4
2014-Jun-23 19:33S 34°40' E 018°21'6 6.2
2014-Jun-23 18:33S 34°43' E 018°28'6 6.1
2014-Jun-23 17:30S 34°45' E 018°35'6 6.1
2014-Jun-23 16:31S 34°47' E 018°42'6 6.1
2014-Jun-23 15:33S 34°49' E 018°49'7 6.0
2014-Jun-23 14:28S 34°51' E 018°57'11 5.2
2014-Jun-23 12:17S 34°55' E 019°09'4 4.9
2014-Jun-23 11:31S 34°57' E 019°14'8 6.7
2014-Jun-23 10:19S 34°60' E 019°23'38 5.5
2014-Jun-23 03:23S 35°06' E 020°09'6 5.4
2014-Jun-23 02:14S 35°05' E 020°16'4 5.8
2014-Jun-23 01:32S 35°04' E 020°21'  
2014-Jun-20 01:23S 32°32' E 029°02'5 4.8
2014-Jun-20 00:21S 32°29' E 029°07'8 4.4
2014-Jun-19 22:32S 32°23' E 029°13'157 6.0
2014-Jun-18 20:18S 30°15' E 031°00'6 8.2
2014-Jun-18 19:33S 30°10' E 031°04'8 8.0
2014-Jun-18 18:33S 30°03' E 031°09'7 7.2
2014-Jun-18 17:33S 29°56' E 031°11'2 1.8
2014-Jun-18 16:33S 29°55' E 031°09'2 1.6
2014-Jun-18 15:33S 29°55' E 031°07'1 1.4
2014-Jun-18 14:33S 29°56' E 031°06'8 8.3
2014-Jun-18 13:33S 30°01' E 030°58'1 0.3
2014-Jun-18 11:12S 30°00' E 030°58'0 0.0
2014-Jun-17 14:29S 30°00' E 030°59'1 0.9
2014-Jun-17 13:33S 29°60' E 030°59'1 1.2
2014-Jun-17 12:33S 29°59' E 031°01'1 1.2
2014-Jun-17 11:33S 29°60' E 031°02'3 3.3
2014-Jun-17 10:33S 30°03' E 031°00'7 6.7
2014-Jun-17 09:33S 30°09' E 030°58'11 8.3
2014-Jun-17 08:15S 30°20' E 030°56'60 8.3
2014-Jun-17 01:06S 31°17' E 030°37'98 9.8
2014-Jun-16 15:06S 32°29' E 029°19'15 9.4
2014-Jun-16 13:31S 32°40' E 029°07'97 8.7
2014-Jun-16 02:26S 33°47' E 027°43'  
Track history (hours):
 
Tides and Currents Weather Stations Pressure Air Temp Water Temp Dewpoint Dewpoint Depression Visibility Wind Speed Wind Dir Waves Ship Positions

Delta Ocean

Last reported at 2014-Jun-24 22:19 UTC. Time now 2014-Jul-23 23:41 UTC.
Position S 32°36' E 016°51'.
Warning: this ship's position is 29 days out of date.

Length 274 m; draft 9 m.

Type: Tanker. MMSI: 240958000.

Date/timePositionNaut miles runAvg speedWind from/ knotsBaromVisibWave heightAir tempDewpointWater temp
2014-Jun-24 22:19S 32°36' E 016°51'26 6.8
2014-Jun-24 18:31S 32°59' E 017°05'79 5.5
2014-Jun-24 04:12S 33°56' E 018°11'1 1.6
2014-Jun-24 03:33S 33°57' E 018°11'5 5.0
2014-Jun-24 02:33S 34°02' E 018°09'7 7.0
2014-Jun-24 01:33S 34°08' E 018°05'7 7.2
2014-Jun-24 00:33S 34°15' E 018°01'7 6.5
2014-Jun-23 23:33S 34°21' E 018°01'6 6.5
2014-Jun-23 22:33S 34°27' E 018°05'9 6.6
2014-Jun-23 21:11S 34°35' E 018°10'4 6.5
2014-Jun-23 20:33S 34°37' E 018°14'6 6.4
2014-Jun-23 19:33S 34°40' E 018°21'6 6.2
2014-Jun-23 18:33S 34°43' E 018°28'6 6.1
2014-Jun-23 17:30S 34°45' E 018°35'6 6.1
2014-Jun-23 16:31S 34°47' E 018°42'6 6.1
2014-Jun-23 15:33S 34°49' E 018°49'7 6.0
2014-Jun-23 14:28S 34°51' E 018°57'11 5.2
2014-Jun-23 12:17S 34°55' E 019°09'4 4.9
2014-Jun-23 11:31S 34°57' E 019°14'8 6.7
2014-Jun-23 10:19S 34°60' E 019°23'38 5.5
2014-Jun-23 03:23S 35°06' E 020°09'6 5.4
2014-Jun-23 02:14S 35°05' E 020°16'4 5.8
2014-Jun-23 01:32S 35°04' E 020°21'  
2014-Jun-20 01:23S 32°32' E 029°02'5 4.8
2014-Jun-20 00:21S 32°29' E 029°07'8 4.4
2014-Jun-19 22:32S 32°23' E 029°13'157 6.0
2014-Jun-18 20:18S 30°15' E 031°00'6 8.2
2014-Jun-18 19:33S 30°10' E 031°04'8 8.0
2014-Jun-18 18:33S 30°03' E 031°09'7 7.2
2014-Jun-18 17:33S 29°56' E 031°11'2 1.8
2014-Jun-18 16:33S 29°55' E 031°09'2 1.6
2014-Jun-18 15:33S 29°55' E 031°07'1 1.4
2014-Jun-18 14:33S 29°56' E 031°06'8 8.3
2014-Jun-18 13:33S 30°01' E 030°58'1 0.3
2014-Jun-18 11:12S 30°00' E 030°58'0 0.0
2014-Jun-17 14:29S 30°00' E 030°59'1 0.9
2014-Jun-17 13:33S 29°60' E 030°59'1 1.2
2014-Jun-17 12:33S 29°59' E 031°01'1 1.2
2014-Jun-17 11:33S 29°60' E 031°02'3 3.3
2014-Jun-17 10:33S 30°03' E 031°00'7 6.7
2014-Jun-17 09:33S 30°09' E 030°58'11 8.3
2014-Jun-17 08:15S 30°20' E 030°56'60 8.3
2014-Jun-17 01:06S 31°17' E 030°37'98 9.8
2014-Jun-16 15:06S 32°29' E 029°19'15 9.4
2014-Jun-16 13:31S 32°40' E 029°07'97 8.7
2014-Jun-16 02:26S 33°47' E 027°43'  

Dump ship's entire track history